Tiempo atmosférico en la estación meteorológica de Cillórigo de Liébana, Tama, Cantabria (250 m.)



Fecha
DESCASC
Temp. máxima en grados centígrados (hora)
DESCASC
Temp. mínima en grados centígrados (hora)
DESCASC
Temp. media en grados centígrados
DESCASC
Racha de viento máxima en m/sg (hora)
DESCASC
Velocidad máxima media en intervalos de 10 minutos(hora)
DESCASC
Precipitaciones diarias en mm
DESCASC
Precipitaciones de 00:00 a 06:00 en mm
DESCASC
Precipitaciones de 06:00 a 12:00 en mm
DESCASC
Precipitaciones de 12:00 a 18:00 en mm
DESCASC
Precipitaciones de 18:00 a 24:00 en mm
DESCASC
13-01-2021 8.7 (15:10) -3.6 (02:50) 2.5 4.72 (16:40) 2.22 (16:40) 0 0 0 0 0
12-01-2021 6.9 (15:00) -4.9 (08:40) 1 3.89 (17:50) 2.22 (16:40) 0 0 0 0 0
11-01-2021 8.1 (16:10) -1.8 (23:50) 3.2 8.33 (01:00) 3.89 (01:00) 1.2 1.2 0 0 0
10-01-2021 5.8 (20:40) 1 (00:00) 3.4 10.56 (11:50) 4.72 (08:40) 2.2 2 0.2 0 0
09-01-2021 3.4 (12:50) -1.9 (-00:0) 0.8 9.72 (17:50) 4.17 (16:10) 10.4 0 0.2 4.8 5.4
08-01-2021 5.9 (16:10) -4.6 (-00:0) 0.7 7.5 (16:10) 3.33 (16:30) 0 0 0 0 0
07-01-2021 4.4 (15:00) -5.2 (-00:0) -0.4 3.06 (16:40) 1.94 (16:20) 0 0 0 0 0
06-01-2021 6.3 (14:50) -2.1 (-00:0) 2.1 2.78 (16:10) 1.94 (16:10) 0 0 0 0 0
05-01-2021 5.3 (15:10) -1 (-00:0) 2.2 3.89 (08:10) 2.5 (08:40) 9.6 0.4 1.2 7.4 0.6
04-01-2021 1.7 (16:10) 0.1 (00:00) 0.9 3.61 (06:40) 1.67 (06:40) 16.5 3.6 4.5 7.2 1.2
03-01-2021 4 (14:40) 0.1 (00:00) 2.1 4.44 (17:30) 2.22 (16:00) 14 1.6 2.2 6.2 4
02-01-2021 4.7 (12:50) 0.1 (00:00) 2.4 7.5 (04:30) 4.72 (02:30) 19.4 6 5 6.8 1.6
01-01-2021 4.1 (11:50) 0.7 (00:00) 2.4 8.89 (23:10) 4.44 (12:00) 11.2 0.6 0.8 9.2 0.6
31-12-2020 7.3 (14:10) 0.8 (00:00) 4.1 6.39 (17:20) 3.06 (17:20) 13.4 0 0 10.4 3
30-12-2020 6.9 (14:30) 1.6 (00:00) 4.3 2.78 (08:40) 1.67 (16:20) 2 1.6 0 0.4 0
29-12-2020 6.4 (14:50) 2.7 (00:00) 4.6 6.67 (15:10) 3.33 (15:10) 19.2 4.2 5.8 3.8 5.4
28-12-2020 8.2 (15:00) 3.9 (00:00) 6 19.17 (02:10) 8.33 (02:10) 20.2 6.6 1 7.2 5.4
27-12-2020 14.4 (15:40) -1.6 (-00:0) 6.4 12.22 (16:10) 6.67 (16:10) 8.8 0 0 0 8.8
26-12-2020 9.5 (15:20) -1.4 (-00:0) 4.1 3.06 (04:20) 1.94 (16:30) 0 0 0 0 0
25-12-2020 8.2 (14:30) 3.5 (00:00) 5.8 7.22 (15:40) 3.33 (01:30) 8.6 2.2 6 0.4 0
24-12-2020 11.9 (14:40) 0 (00:00) 5.9 9.17 (19:40) 3.89 (15:00) 7.4 0 0 0 7.4
23-12-2020 17.9 (02:00) 7.2 (00:00) 12.5 14.17 (16:50) 5.83 (16:40) 0 0 0 0 0
22-12-2020 20.5 (14:50) 5.4 (00:00) 13 9.44 (14:10) 3.89 (22:30) 0 0 0 0 0
21-12-2020 18.1 (14:50) 9.5 (00:00) 13.8 8.06 (20:20) 5 (22:10) 0.6 0.2 0.4 0 0
20-12-2020 13.1 (19:30) 1.8 (00:00) 7.5 6.39 (19:30) 3.33 (19:30) 0 0 0 0 0
19-12-2020 13.8 (01:30) 3.6 (00:00) 8.7 7.78 (05:10) 3.89 (04:40) 0.2 0.2 0 0 0

Gráficas

Temp. máximas Temp. mínimas Temp. medias Precipitaciones Rachas de viento máximas Velocidades máximas media en intervalos de 10 minutos

Datos horarios

Fecha y hora oficial Temperatura (ºC) Velocidad del viento (km/h) Dirección del viento Racha (km/h) Dirección de racha Precipitación (mm) Presión (hPa) Tendencia (hPa) Humedad (%)
2021-01-17 23:00:00 1.3 2 Sur 5 Oeste 0 -- -- 95
2021-01-17 22:00:00 2 0 Calma 6 Este 0 -- -- 95
2021-01-17 21:00:00 2.8 0 Calma 5 Este 0 -- -- 93
2021-01-17 20:00:00 3.8 0 Calma 6 Sudeste 0 -- -- 90
2021-01-17 19:00:00 5.5 0 Calma 6 Oeste 0 -- -- 86
2021-01-17 18:00:00 8.4 3 Sur 11 Sudoeste 0 -- -- 77
2021-01-17 17:00:00 10.3 3 Sudoeste 6 Sudoeste 0 -- -- 73
2021-01-17 16:00:00 11 0 Calma 5 Oeste 0 -- -- 62
2021-01-17 15:00:00 10.2 0 Calma 5 Oeste 0 -- -- 65
2021-01-17 14:00:00 9 0 Calma 6 Oeste 0 -- -- 65
2021-01-17 13:00:00 7.2 2 Nordeste 5 Oeste 0 -- -- 75
2021-01-17 12:00:00 3.5 2 Oeste 6 Norte 0 -- -- 91
2021-01-17 11:00:00 0.3 3 Oeste 7 Este 0 -- -- 98
2021-01-17 10:00:00 -2 4 Este 7 Este 0 -- -- 98
2021-01-17 09:00:00 -2.8 3 Sudeste 13 Sudeste 0 -- -- 98
2021-01-17 08:00:00 -3 0 Calma 5 Oeste 0 -- -- 98
2021-01-17 07:00:00 -3 0 Calma 7 Este 0 -- -- 98
2021-01-17 06:00:00 -2.8 0 Calma 6 Oeste 0 -- -- 98
2021-01-17 05:00:00 -2.7 0 Calma 6 Sudeste 0 -- -- 97
2021-01-17 04:00:00 -2.5 0 Calma 4 Este 0 -- -- 97
2021-01-17 03:00:00 -2.2 0 Calma 5 Noroeste 0 -- -- 97
2021-01-17 02:00:00 -1.8 0 Calma 5 Noroeste 0 -- -- 97
2021-01-17 01:00:00 -1.8 0 Calma 3 Sudoeste 0 -- -- 96
2021-01-17 00:00:00 -1.3 0 Calma 3 Sur 0 -- -- 96
2021-01-16 23:00:00 -1 0 Calma 5 Sur 0 -- -- 96
2021-01-16 22:00:00 -0.5 0 Calma 4 Sur 0 -- -- 95
2021-01-16 21:00:00 -0.1 0 Calma 3 Sur 0 -- -- 93
2021-01-16 20:00:00 0.7 0 Calma 5 Sur 0 -- -- 91
2021-01-16 19:00:00 1.8 0 Calma 4 Sudoeste 0 -- -- 87
2021-01-16 18:00:00 4.1 0 Calma 6 Sudoeste 0 -- -- 79
2021-01-16 17:00:00 7 3 Sudoeste 13 Sudoeste 0 -- -- 67
2021-01-16 16:00:00 9.1 5 Sudoeste 8 Oeste 0 -- -- 63
2021-01-16 15:00:00 9.4 5 Oeste 8 Oeste 0 -- -- 66
2021-01-16 14:00:00 8 2 Sudoeste 5 Oeste 0 -- -- 67
2021-01-16 13:00:00 5.7 0 Calma 5 Sur 0 -- -- 74
2021-01-16 12:00:00 2.6 0 Calma 4 Sudeste 0 -- -- 90
2021-01-16 11:00:00 -1 2 Sudeste 4 Sudeste 0 -- -- 98
2021-01-16 10:00:00 -3.5 0 Calma 5 Sur 0 -- -- 98
2021-01-16 09:00:00 -4.2 0 Calma 4 Sudeste 0 -- -- 98
2021-01-16 08:00:00 -4 0 Calma 3 Sudeste 0 -- -- 98
2021-01-16 07:00:00 -3.8 0 Calma 2 Sudeste 0 -- -- 98
2021-01-16 06:00:00 -3.1 0 Calma 3 Sur 0 -- -- 98
2021-01-16 05:00:00 -2.7 0 Calma 4 Sur 0 -- -- 98
2021-01-16 04:00:00 -2.7 3 Sur 4 Sur 0 -- -- 98
2021-01-16 03:00:00 -2.5 0 Calma 4 Sur 0 -- -- 97
2021-01-16 02:00:00 -2.2 0 Calma 3 Sudeste 0 -- -- 97
2021-01-16 01:00:00 -1.9 0 Calma 3 Sudeste 0 -- -- 97
2021-01-16 00:00:00 -1.4 0 Calma 4 Oeste 0 -- -- 96
2021-01-15 23:00:00 -1 0 Calma 4 Sudoeste 0 -- -- 96
2021-01-15 22:00:00 -0.5 0 Calma 3 Oeste 0 -- -- 95
2021-01-15 21:00:00 0.2 0 Calma 4 Sur 0 -- -- 93
2021-01-15 20:00:00 1.4 0 Calma 3 Oeste 0 -- -- 91
2021-01-15 19:00:00 3.2 0 Calma 7 Sudoeste 0 -- -- 86
2021-01-15 18:00:00 5.8 0 Calma 10 Sudoeste 0 -- -- 80
2021-01-15 17:00:00 8.1 3 Sudoeste 13 Norte 0 -- -- 73
2021-01-15 16:00:00 10.7 6 Nordeste 12 Nordeste 0 -- -- 65
2021-01-15 15:00:00 10.7 4 Oeste 6 Oeste 0 -- -- 68
2021-01-15 14:00:00 8.4 3 Oeste 5 Noroeste 0 -- -- 71
2021-01-15 13:00:00 5.8 0 Calma 4 Noroeste 0 -- -- 96
2021-01-15 12:00:00 1.9 0 Calma 5 Oeste 0 -- -- 100
2021-01-15 11:00:00 0.9 0 Calma 6 Sudeste 0 -- -- 99
2021-01-15 10:00:00 0.1 5 Sudeste 11 Sur 0 -- -- 99
2021-01-15 09:00:00 -0.1 0 Calma 6 Sur 0 -- -- 99
2021-01-15 08:00:00 -0.6 0 Calma 4 Nordeste 0 -- -- 99
2021-01-15 07:00:00 -1 0 Calma 4 Sur 0 -- -- 99
2021-01-15 06:00:00 -0.6 0 Calma 3 Norte 0 -- -- 98
2021-01-15 05:00:00 0.3 0 Calma 5 Oeste 0 -- -- 98
2021-01-15 04:00:00 0.5 0 Calma 4 Sudoeste 0 -- -- 98
2021-01-15 03:00:00 0.5 3 Sur 6 Sur 0 -- -- 98
2021-01-15 02:00:00 0.4 0 Calma 5 Noroeste 0 -- -- 98
2021-01-15 01:00:00 0 0 Calma 3 Nordeste 0 -- -- 97
2021-01-15 00:00:00 0.3 0 Calma 4 Oeste 0 -- -- 97
2021-01-14 23:00:00 0.6 2 Este 5 Este 0 -- -- 96
2021-01-14 22:00:00 0.7 3 Noroeste 5 Noroeste 0 -- -- 94
2021-01-14 21:00:00 1.8 0 Calma 5 Sudeste 0 -- -- 93
2021-01-14 20:00:00 2.8 0 Calma 8 Sur 0 -- -- 90
2021-01-14 19:00:00 4.1 0 Calma 7 Sur 0 -- -- 87
2021-01-14 18:00:00 5.8 3 Sur 6 Sudoeste 0 -- -- 82
2021-01-14 17:00:00 7.1 3 Oeste 6 Noroeste 0 -- -- 77
2021-01-14 16:00:00 7.4 2 Noroeste 5 Noroeste 0 -- -- 70
2021-01-14 15:00:00 6.6 0 Calma 6 Noroeste 0 -- -- 69
2021-01-14 14:00:00 5.2 2 Oeste 4 Oeste 0 -- -- 76
2021-01-14 13:00:00 3.8 3 Sudeste 6 Noroeste 0 -- -- 77
2021-01-14 12:00:00 0.8 0 Calma 4 Sur 0 -- -- 91
2021-01-14 11:00:00 -2.3 0 Calma 5 Sudeste 0 -- -- 99
2021-01-14 10:00:00 -4.8 0 Calma 6 Oeste 0 -- -- 98
2021-01-14 09:00:00 -5 2 Sudeste 5 Sudeste 0 -- -- 98
2021-01-14 08:00:00 -4.4 0 Calma 3 Sudeste 0 -- -- 98
2021-01-14 07:00:00 -3.7 0 Calma 5 Sur 0 -- -- 98
2021-01-14 06:00:00 -3.6 2 Sur 5 Sur 0 -- -- 97
2021-01-14 05:00:00 -3.5 0 Calma 3 Sudeste 0 -- -- 97
2021-01-14 04:00:00 -3 0 Calma 5 Sur 0 -- -- 97
2021-01-14 03:00:00 -3.3 3 Sur 4 Sudeste 0 -- -- 97
2021-01-14 02:00:00 -3.1 0 Calma 5 Sur 0 -- -- 97
2021-01-14 01:00:00 -3.1 0 Calma 2 Sudeste 0 -- -- 96
2021-01-14 00:00:00 -2.6 0 Calma 3 Sudeste 0 -- -- 96
2021-01-13 23:00:00 -2.2 0 Calma 3 Sudeste 0 -- -- 95
2021-01-13 22:00:00 -1.6 0 Calma 2 Oeste 0 -- -- 95
2021-01-13 21:00:00 -1 0 Calma 5 Sur 0 -- -- 94
2021-01-13 20:00:00 -0.1 0 Calma 3 Sur 0 -- -- 93
2021-01-13 19:00:00 1.1 0 Calma 5 Oeste 0 -- -- 90
2021-01-13 18:00:00 2.9 0 Calma 6 Sudeste 0 -- -- 84
2021-01-13 17:00:00 5 4 Sudoeste 17 Sudoeste 0 -- -- 78
2021-01-13 16:00:00 7.3 4 Oeste 8 Oeste 0 -- -- 72
2021-01-13 15:00:00 8.6 3 Oeste 5 Oeste 0 -- -- 66
2021-01-13 14:00:00 6.7 3 Oeste 5 Oeste 0 -- -- 72
2021-01-13 13:00:00 4.7 0 Calma 4 Noroeste 0 -- -- 75
2021-01-13 12:00:00 1.9 0 Calma 5 Noroeste 0 -- -- 87
2021-01-13 11:00:00 -0.6 0 Calma 4 Noroeste 0 -- -- 94
2021-01-13 10:00:00 -1.5 0 Calma 6 Sudeste 0 -- -- 96
2021-01-13 09:00:00 -2.1 0 Calma 8 Sur 0 -- -- 97
2021-01-13 08:00:00 -2.3 3 Sur 6 Sur 0 -- -- 97
2021-01-13 07:00:00 -2.5 0 Calma 3 Oeste 0 -- -- 97
2021-01-13 06:00:00 -2 0 Calma -- -- 0 -- -- 97
2021-01-13 05:00:00 -2.2 0 Calma 3 Noroeste 0 -- -- 97
2021-01-13 04:00:00 -2.6 0 Calma 2 Sudeste 0 -- -- 97
2021-01-13 03:00:00 -3.5 0 Calma 2 Noroeste 0 -- -- 97
2021-01-13 02:00:00 -3.3 0 Calma 3 Sudeste 0 -- -- 97
2021-01-13 01:00:00 -3 0 Calma 2 Sur 0 -- -- 96
2021-01-13 00:00:00 -2.4 0 Calma 3 Sur 0 -- -- 96
2021-01-12 23:00:00 -2.1 0 Calma 4 Sudoeste 0 -- -- 95
2021-01-12 22:00:00 -1.6 0 Calma 2 Sudoeste 0 -- -- 94
2021-01-12 21:00:00 -1.1 0 Calma 5 Oeste 0 -- -- 94
2021-01-12 20:00:00 -0.4 0 Calma 5 Sudoeste 0 -- -- 92
2021-01-12 19:00:00 0.7 0 Calma 12 Sudeste 0 -- -- 89
2021-01-12 18:00:00 3 8 Sur 14 Sudeste 0 -- -- 83
2021-01-12 17:00:00 3.7 3 Sudoeste 12 Oeste 0 -- -- 79
2021-01-12 16:00:00 6 4 Oeste 8 Sudoeste 0 -- -- 72
2021-01-12 15:00:00 6.9 4 Sudoeste 6 Sudoeste 0 -- -- 67
2021-01-12 14:00:00 5 0 Calma 5 Oeste 0 -- -- 72
2021-01-12 13:00:00 3 0 Calma 4 Noroeste 0 -- -- 78
2021-01-12 12:00:00 0.5 0 Calma 5 Sur 0 -- -- 88
2021-01-12 11:00:00 -1.8 0 Calma 3 Sudeste 0 -- -- 98
2021-01-12 10:00:00 -4.5 0 Calma 4 Noroeste 0 -- -- 97
2021-01-12 09:00:00 -4.8 0 Calma 2 Este 0 -- -- 97
2021-01-12 08:00:00 -4.6 0 Calma 3 Noroeste 0 -- -- 97
2021-01-12 07:00:00 -4.4 0 Calma 2 Este 0 -- -- 97
2021-01-12 06:00:00 -4.1 0 Calma 4 Sur 0 -- -- 97
2021-01-12 05:00:00 -3.7 0 Calma 3 Sur 0 -- -- 97
2021-01-12 04:00:00 -3.4 2 Sur 3 Sur 0 -- -- 96
2021-01-12 03:00:00 -2.8 0 Calma 4 Sur 0 -- -- 96
2021-01-12 02:00:00 -2.5 2 Noroeste 5 Noroeste 0 -- -- 96
2021-01-12 01:00:00 -2.2 0 Calma 4 Noroeste 0 -- -- 96
2021-01-12 00:00:00 -1.8 0 Calma 4 Oeste 0 -- -- 96
2021-01-11 23:00:00 -1.4 0 Calma -- -- 0 -- -- 95
2021-01-11 22:00:00 -0.9 0 Calma 2 Sudeste 0 -- -- 94
2021-01-11 21:00:00 -0.3 0 Calma 3 Noroeste 0 -- -- 93
2021-01-11 20:00:00 0.7 0 Calma 5 Oeste 0 -- -- 90
2021-01-11 19:00:00 2.1 0 Calma 4 Noroeste 0 -- -- 86
2021-01-11 18:00:00 4.1 3 Sur 12 Sudoeste 0 -- -- 79
2021-01-11 17:00:00 6.9 5 Noroeste 17 Nordeste 0 -- -- 67
2021-01-11 16:00:00 7.9 6 Nordeste 17 Norte 0 -- -- 60
2021-01-11 15:00:00 7.6 6 Norte 17 Norte 0 -- -- 66
2021-01-11 14:00:00 7.6 5 Norte 17 Nordeste 0 -- -- 65
2021-01-11 13:00:00 6.7 6 Norte 15 Norte 0 -- -- 68
2021-01-11 12:00:00 5 0 Calma 6 Sudeste 0 -- -- 82
2021-01-11 11:00:00 3.2 3 Sur 9 Sur 0 -- -- 91
2021-01-11 10:00:00 2.6 3 Este 15 Sudeste 0 -- -- 92
2021-01-11 09:00:00 2.5 8 Sudeste 17 Sur 0 -- -- 92
2021-01-11 08:00:00 2.5 5 Sudeste 14 Sur 0 -- -- 92
2021-01-11 07:00:00 2.9 9 Sur 17 Sudeste 0 -- -- 91
2021-01-11 06:00:00 3.1 5 Sudeste 13 Sur 0 -- -- 90
2021-01-11 05:00:00 4 8 Norte 16 Norte 0.4 -- -- 84
2021-01-11 04:00:00 3.5 9 Sur 18 Norte 0.2 -- -- 87
2021-01-11 03:00:00 4.3 13 Norte 26 Norte 0.2 -- -- 83
2021-01-11 02:00:00 4.2 6 Norte 24 Noroeste 0.2 -- -- 84
2021-01-11 01:00:00 4.9 14 Norte 30 Norte 0.2 -- -- 79
2021-01-11 00:00:00 5.1 7 Norte 30 Noroeste 0 -- -- 74
2021-01-10 23:00:00 5.8 14 Norte 32 Norte 0 -- -- 67
2021-01-10 22:00:00 5.7 10 Norte 32 Norte 0 -- -- 65
2021-01-10 21:00:00 5.6 12 Norte 33 Norte 0 -- -- 65
2021-01-10 20:00:00 5.6 13 Norte 27 Norte 0 -- -- 64
2021-01-10 19:00:00 5.5 8 Norte 27 Norte 0 -- -- 65
2021-01-10 18:00:00 5.4 12 Norte 27 Noroeste 0 -- -- 64
2021-01-10 17:00:00 5.7 12 Norte 28 Nordeste 0 -- -- 62
2021-01-10 16:00:00 5.6 10 Norte 31 Norte 0 -- -- 64
2021-01-10 15:00:00 5.5 10 Norte 26 Noroeste 0 -- -- 68
2021-01-10 14:00:00 5.3 11 Norte 27 Noroeste 0 -- -- 72
2021-01-10 13:00:00 5.6 9 Norte 33 Norte 0 -- -- 66
2021-01-10 12:00:00 5.5 12 Norte 38 Nordeste 0 -- -- 67
2021-01-10 11:00:00 5.4 14 Norte 31 Norte 0 -- -- 70
2021-01-10 10:00:00 5.2 15 Norte 31 Norte 0 -- -- 75
2021-01-10 09:00:00 5.1 15 Norte 33 Norte 0 -- -- 75
2021-01-10 08:00:00 4.8 15 Norte 28 Norte 0 -- -- 76
2021-01-10 07:00:00 3.1 3 Oeste 18 Norte 0.2 -- -- 91
2021-01-10 06:00:00 4.1 7 Norte 25 Norte 0.8 -- -- 85
2021-01-10 05:00:00 2.2 4 Oeste 11 Oeste 0.2 -- -- 98
2021-01-10 04:00:00 1.5 2 Sudeste 7 Sudeste 0.4 -- -- 98
2021-01-10 03:00:00 1.3 0 Calma 9 Sudeste 0.4 -- -- 98
2021-01-10 02:00:00 1.2 4 Sur 6 Sur 0.2 -- -- 98
2021-01-10 01:00:00 1.1 0 Calma 4 Noroeste 0 -- -- 97
2021-01-10 00:00:00 1 0 Calma 8 Sur 0.2 -- -- 96
2021-01-09 23:00:00 1.1 6 Sudeste 9 Sur 0.8 -- -- 94
2021-01-09 22:00:00 2 4 Norte 17 Norte 1 -- -- 90
2021-01-09 21:00:00 2.3 11 Norte 24 Norte 1.2 -- -- 89
2021-01-09 20:00:00 2.3 11 Norte 23 Norte 1.2 -- -- 90
2021-01-09 19:00:00 2.2 10 Norte 22 Norte 1 -- -- 91
2021-01-09 18:00:00 2.5 14 Norte 35 Noroeste 2 -- -- 89
2021-01-09 17:00:00 2.8 15 Noroeste 28 Norte 1.2 -- -- 87
2021-01-09 16:00:00 3.1 13 Norte 25 Norte 0.2 -- -- 86
2021-01-09 15:00:00 3.2 12 Noroeste 31 Noroeste 0.2 -- -- 86
2021-01-09 14:00:00 3 12 Norte 28 Noroeste 0.6 -- -- 88
2021-01-09 13:00:00 3.4 9 Norte 23 Noroeste 0.6 -- -- 83
2021-01-09 12:00:00 1.9 6 Norte 17 Norte 0.2 -- -- 95
2021-01-09 11:00:00 0.3 0 Calma 8 Sudeste 0 -- -- 95
2021-01-09 10:00:00 -0.3 4 Sudeste 8 Sur 0 -- -- 95
2021-01-09 09:00:00 -0.9 2 Sudeste 5 Sudeste 0 -- -- 94
2021-01-09 08:00:00 -1 0 Calma 4 Noroeste 0 -- -- 93
2021-01-09 07:00:00 -1.1 0 Calma 4 Nordeste 0 -- -- 92
2021-01-09 06:00:00 -1.2 0 Calma 4 Sudeste 0 -- -- 92
2021-01-09 05:00:00 -1.3 0 Calma 4 Este 0 -- -- 92
2021-01-09 04:00:00 -1.5 0 Calma 5 Oeste 0 -- -- 91
2021-01-09 03:00:00 -1.6 0 Calma 4 Oeste 0 -- -- 91
2021-01-09 02:00:00 -1.7 0 Calma 8 Sudeste 0 -- -- 91
2021-01-09 01:00:00 -1.8 0 Calma 6 Sudeste 0 -- -- 90
2021-01-09 00:00:00 -1.9 0 Calma 12 Sudeste 0 -- -- 90
2021-01-08 23:00:00 -2.1 8 Sur 12 Sur 0 -- -- 90
2021-01-08 22:00:00 -1.9 3 Sur 6 Sur 0 -- -- 91
2021-01-08 21:00:00 -1.8 3 Sur 10 Sudeste 0 -- -- 91
2021-01-08 20:00:00 -1.4 2 Noroeste 5 Norte 0 -- -- 89
2021-01-08 19:00:00 -0.2 3 Sur 14 Sur 0 -- -- 83
2021-01-08 18:00:00 1.6 7 Sudeste 18 Sur 0 -- -- 77
2021-01-08 17:00:00 4.9 12 Norte 27 Norte 0 -- -- 55
2021-01-08 16:00:00 5.6 5 Este 12 Sudoeste 0 -- -- 56
2021-01-08 15:00:00 5 0 Calma 6 Sudoeste 0 -- -- 67
2021-01-08 14:00:00 3.8 3 Sudoeste 7 Oeste 0 -- -- 68
2021-01-08 13:00:00 2.3 3 Sudeste 6 Sudeste 0 -- -- 72
2021-01-08 12:00:00 0 0 Calma 5 Sur 0 -- -- 85
2021-01-08 11:00:00 -2.5 2 Sudeste 14 Sudeste 0 -- -- 96
2021-01-08 10:00:00 -4.4 2 Sur 5 Sudeste 0 -- -- 97
2021-01-08 09:00:00 -4.3 3 Este 6 Nordeste 0 -- -- 98
2021-01-08 08:00:00 -4.2 0 Calma 12 Sudeste 0 -- -- 97
2021-01-08 07:00:00 -4 2 Sur 4 Oeste 0 -- -- 96
2021-01-08 06:00:00 -3.4 0 Calma 4 Sudeste 0 -- -- 96
2021-01-08 05:00:00 -2.8 0 Calma 6 Noroeste 0 -- -- 95
2021-01-08 04:00:00 -1.9 0 Calma 9 Sudeste 0 -- -- 96
2021-01-08 03:00:00 -2.1 3 Sudeste 5 Sur 0 -- -- 97
2021-01-08 02:00:00 -2.5 0 Calma 4 Sudoeste 0 -- -- 97
2021-01-08 01:00:00 -2.7 0 Calma 5 Sur 0 -- -- 97
2021-01-08 00:00:00 -3.1 0 Calma 5 Sur 0 -- -- 97
2021-01-07 23:00:00 -2.8 0 Calma 9 Sudeste 0 -- -- 96
2021-01-07 22:00:00 -2.6 0 Calma 3 Sudeste 0 -- -- 96
2021-01-07 21:00:00 -2 0 Calma 3 Oeste 0 -- -- 95
2021-01-07 20:00:00 -1.5 0 Calma 4 Noroeste 0 -- -- 94
2021-01-07 19:00:00 -0.7 0 Calma 4 Oeste 0 -- -- 93
2021-01-07 18:00:00 0.5 0 Calma 6 Sudoeste 0 -- -- 89
2021-01-07 17:00:00 1.9 3 Sudoeste 11 Oeste 0 -- -- 86
2021-01-07 16:00:00 3.7 6 Sudoeste 9 Sudoeste 0 -- -- 81
2021-01-07 15:00:00 4.4 5 Sudoeste 8 Sudoeste 0 -- -- 77
2021-01-07 14:00:00 3.7 2 Sur 5 Sur 0 -- -- 72
2021-01-07 13:00:00 2 2 Sudeste 4 Sur 0 -- -- 77
2021-01-07 12:00:00 -0.3 0 Calma 4 Este 0 -- -- 87
2021-01-07 11:00:00 -2.6 0 Calma 4 Este 0 -- -- 97
2021-01-07 10:00:00 -5 0 Calma 2 Sudeste 0 -- -- 97
2021-01-07 09:00:00 -5.1 0 Calma 4 Sur 0 -- -- 97
2021-01-07 08:00:00 -4.7 0 Calma 4 Sur 0 -- -- 97
2021-01-07 07:00:00 -4.3 2 Sur 4 Sur 0 -- -- 98
2021-01-07 06:00:00 -3.9 2 Este 4 Sur 0 -- -- 98
2021-01-07 05:00:00 -3.4 0 Calma 3 Este 0 -- -- 98
2021-01-07 04:00:00 -3.1 0 Calma 4 Este 0 -- -- 98
2021-01-07 03:00:00 -2.9 2 Sudeste 4 Sur 0 -- -- 98
2021-01-07 02:00:00 -2.7 0 Calma 3 Sur 0 -- -- 98
2021-01-07 01:00:00 -2.1 3 Sudeste 3 Sudeste 0 -- -- 98
2021-01-07 00:00:00 -2.1 0 Calma 3 Sudeste 0 -- -- 98
2021-01-06 23:00:00 -1.8 0 Calma 3 Sur 0 -- -- 97
2021-01-06 22:00:00 -1.4 0 Calma 3 Noroeste 0 -- -- 97
2021-01-06 21:00:00 -0.9 0 Calma 3 Noroeste 0 -- -- 96
2021-01-06 20:00:00 -0.4 0 Calma 4 Oeste 0 -- -- 95
2021-01-06 19:00:00 0.5 0 Calma 5 Oeste 0 -- -- 93
2021-01-06 18:00:00 2 3 Oeste 10 Sur 0 -- -- 89
2021-01-06 17:00:00 3.9 3 Sudoeste 10 Sudoeste 0 -- -- 85
2021-01-06 16:00:00 5.5 6 Sudoeste 10 Oeste 0 -- -- 80
2021-01-06 15:00:00 6 5 Oeste 9 Oeste 0 -- -- 78
2021-01-06 14:00:00 5.6 0 Calma 5 Oeste 0 -- -- 75
2021-01-06 13:00:00 4.1 2 Noroeste 6 Oeste 0 -- -- 81
2021-01-06 12:00:00 2.3 2 Norte 5 Noroeste 0 -- -- 88
2021-01-06 11:00:00 1.2 0 Calma 7 Sudeste 0 -- -- 97
2021-01-06 10:00:00 0.6 3 Sur 5 Sudeste 0 -- -- 99
2021-01-06 09:00:00 0.4 0 Calma 4 Sur 0 -- -- 99
2021-01-06 08:00:00 0.7 0 Calma 3 Sur 0 -- -- 99
2021-01-06 07:00:00 0.8 0 Calma 3 Sur 0 -- -- 99
2021-01-06 06:00:00 1 0 Calma 4 Sur 0 -- -- 99
2021-01-06 05:00:00 1.1 2 Sur 4 Sur 0 -- -- 99
2021-01-06 04:00:00 1.2 0 Calma 2 Oeste 0 -- -- 99
2021-01-06 03:00:00 1.1 0 Calma 5 Sudoeste 0 -- -- 99
2021-01-06 02:00:00 1 0 Calma 4 Oeste 0 -- -- 99
2021-01-06 01:00:00 1.3 3 Sudeste 4 Sudeste 0 -- -- 99
2021-01-06 00:00:00 1.4 0 Calma 3 Sur 0 -- -- 98
2021-01-05 23:00:00 1.4 0 Calma 6 Sudeste 0.2 -- -- 98
2021-01-05 22:00:00 1.3 0 Calma 4 Sudoeste 0.4 -- -- 98
2021-01-05 21:00:00 1.2 0 Calma 4 Oeste 0 -- -- 97
2021-01-05 20:00:00 1.3 0 Calma 4 Sudeste 0 -- -- 96
2021-01-05 19:00:00 1.8 0 Calma 5 Sudoeste 0 -- -- 94
2021-01-05 18:00:00 2.5 0 Calma 5 Sur 0 -- -- 92
2021-01-05 17:00:00 3.3 7 Sudoeste 10 Oeste 0 -- -- 89
2021-01-05 16:00:00 4.5 3 Oeste 6 Sudoeste 0.8 -- -- 86
2021-01-05 15:00:00 5 2 Oeste 5 Oeste 1.6 -- -- 80
2021-01-05 14:00:00 4.1 3 Oeste 6 Oeste 2.6 -- -- 80
2021-01-05 13:00:00 3.1 0 Calma 4 Noroeste 2.4 -- -- 82
2021-01-05 12:00:00 2.3 0 Calma 3 Sur 1.2 -- -- 85
2021-01-05 11:00:00 0.2 0 Calma 10 Sudeste 0 -- -- 94
2021-01-05 10:00:00 -0.4 0 Calma 6 Este 0 -- -- 97
2021-01-05 09:00:00 -0.6 5 Sudeste 14 Sudeste 0 -- -- 98
2021-01-05 08:00:00 -0.6 8 Sudeste 13 Sudeste 0 -- -- 100
2021-01-05 07:00:00 -1 0 Calma 6 Sudeste 0 -- -- 100
2021-01-05 06:00:00 -0.8 0 Calma 5 Sudeste 0.2 -- -- 100
2021-01-05 05:00:00 -0.2 4 Sur 9 Sur 0 -- -- 100
2021-01-05 04:00:00 0 0 Calma 8 Sudeste 0 -- -- 100
2021-01-05 03:00:00 0.4 3 Este 5 Sudeste 0 -- -- 100
2021-01-05 02:00:00 0.4 0 Calma 3 Sudoeste 0 -- -- 100
2021-01-05 01:00:00 0.4 0 Calma 8 Sudeste 0.2 -- -- 100
2021-01-05 00:00:00 0.4 2 Sudeste 7 Sudeste 0 -- -- 100
2021-01-04 23:00:00 0.5 0 Calma 4 Noroeste 0.2 -- -- 99
2021-01-04 22:00:00 0.6 3 Noroeste 8 Sudeste 0.2 -- -- 99
2021-01-04 21:00:00 0.7 4 Nordeste 7 Este 0.2 -- -- 99
2021-01-04 20:00:00 0.7 0 Calma 5 Sudoeste 0.2 -- -- 99
2021-01-04 19:00:00 0.7 2 Nordeste 4 Nordeste 0.4 -- -- 99
2021-01-04 18:00:00 1 3 Nordeste 6 Sudeste 0.6 -- -- 99
2021-01-04 17:00:00 1.3 2 Norte 6 Sudeste 1.6 -- -- 98
2021-01-04 16:00:00 1.5 3 Sudeste 5 Sudeste 1.8 -- -- 99
2021-01-04 15:00:00 0.9 2 Nordeste 5 Oeste 1.2 -- -- 99
2021-01-04 14:00:00 0.6 3 Noroeste 10 Nordeste 0.8 -- -- 99
2021-01-04 13:00:00 0.6 0 Calma 3 Sudeste 1.2 -- -- 100
2021-01-04 12:00:00 0.7 0 Calma 5 Sudeste 1 -- -- 100
2021-01-04 11:00:00 0.3 2 Nordeste 7 Noroeste -- -- -- 100
2021-01-04 10:00:00 0.3 0 Calma 4 Noroeste 0.6 -- -- 100
2021-01-04 09:00:00 0.3 0 Calma 6 Norte 0.4 -- -- 100
2021-01-04 08:00:00 0.2 2 Sudeste 5 Sudeste 0.6 -- -- 100
2021-01-04 07:00:00 0.3 0 Calma 13 Este 0.6 -- -- 100
2021-01-04 06:00:00 0.1 2 Sudeste 7 Este 0.4 -- -- 100
2021-01-04 05:00:00 0.4 3 Sudeste 11 Sudeste 0.8 -- -- 100
2021-01-04 04:00:00 0.2 3 Noroeste 7 Sudeste 0.4 -- -- 99
2021-01-04 03:00:00 0.4 0 Calma 10 Noroeste 0.4 -- -- 100
2021-01-04 02:00:00 0.2 0 Calma 7 Sudeste 0.8 -- -- 99
2021-01-04 01:00:00 0.3 0 Calma 5 Este 0.8 -- -- 99
2021-01-04 00:00:00 0.4 3 Este 12 Sudoeste 0.8 -- -- 99
2021-01-03 23:00:00 0.2 2 Nordeste 6 Sudeste 0.2 -- -- 99
2021-01-03 22:00:00 0.3 0 Calma 6 Sudeste 0.4 -- -- 98
2021-01-03 21:00:00 0.4 0 Calma 5 Noroeste 0.8 -- -- 98
2021-01-03 20:00:00 0.4 3 Este 9 Noroeste 0.8 -- -- 97
2021-01-03 19:00:00 1.6 0 Calma 12 Oeste 1 -- -- 95
2021-01-03 18:00:00 2.4 8 Oeste 16 Norte 3 -- -- 91
2021-01-03 17:00:00 3.5 2 Sudeste 15 Oeste 0.4 -- -- 93
2021-01-03 16:00:00 4 8 Nordeste 15 Norte 1.6 -- -- 90
2021-01-03 15:00:00 4 3 Noroeste 7 Norte 0.6 -- -- 94
2021-01-03 14:00:00 3.7 3 Noroeste 7 Noroeste 0.2 -- -- 94
2021-01-03 13:00:00 3.2 5 Nordeste 9 Nordeste 0.4 -- -- 96
2021-01-03 12:00:00 2.8 0 Calma 8 Sudeste 0 -- -- 98
2021-01-03 11:00:00 1.7 0 Calma 6 Norte 0.2 -- -- 100
2021-01-03 10:00:00 0.7 4 Oeste 8 Oeste 0.8 -- -- 100
2021-01-03 09:00:00 0.7 3 Sur 7 Sur 0.2 -- -- 99
2021-01-03 08:00:00 0.6 0 Calma 5 Sudeste 0.6 -- -- 99
2021-01-03 07:00:00 0.6 0 Calma 4 Sur 0.4 -- -- 99
2021-01-03 06:00:00 0.6 0 Calma 6 Norte 0.2 -- -- 99
2021-01-03 05:00:00 0.7 0 Calma 5 Sudeste 0.4 -- -- 99
2021-01-03 04:00:00 0.8 0 Calma 5 Noroeste 0.2 -- -- 99
2021-01-03 03:00:00 0.8 2 Sur 6 Norte 0 -- -- 99
2021-01-03 02:00:00 0.8 0 Calma 7 Este 0.2 -- -- 99
2021-01-03 01:00:00 0.9 2 Oeste 6 Sudeste 0.6 -- -- 98
2021-01-03 00:00:00 1.2 2 Sudeste 5 Este 1.2 -- -- 98
2021-01-02 23:00:00 1.5 0 Calma 5 Sur 0.2 -- -- 98
2021-01-02 22:00:00 1.6 0 Calma 4 Sudoeste 0 -- -- 98
2021-01-02 21:00:00 1.7 0 Calma 5 Noroeste 0.2 -- -- 97
2021-01-02 20:00:00 1.9 0 Calma 9 Sudeste 0 -- -- 96
2021-01-02 19:00:00 2.1 0 Calma 6 Sudoeste 0 -- -- 94
2021-01-02 18:00:00 2.8 0 Calma 11 Sudeste 0 -- -- 92
2021-01-02 17:00:00 4 0 Calma 13 Sur 0.4 -- -- 88
2021-01-02 16:00:00 4 8 Sur 13 Sudeste 1 -- -- 86
2021-01-02 15:00:00 3.9 8 Sudeste 13 Sudeste 1 -- -- 86
2021-01-02 14:00:00 3.4 2 Sur 13 Sudeste 1.4 -- -- 86